KHVE/HVE METAR and TAF weather

Enter ICAO airport designator
Station Type Date Time Source
KHVE METAR 2019/06/11 12:15 UTC NOAA

KHVE 111215Z AUTO 00000KT 10SM CLR 08/M03 A3027 RMK AO2


Station Type Date Time Source
KHVE Decoded METAR 2019/06/11 12:15 UTC NOAA

Station name not available
Jun 11, 2019 - 08:15 AM EDT / 2019.06.11 1215 UTC
Wind: Calm:0
Visibility: 10 mile(s):0
Sky conditions: clear
Temperature: 46 F (8 C)
Dew Point: 26 F (-3 C)
Relative Humidity: 45%
Pressure (altimeter): 30.27 in. Hg (1025 hPa)
ob: KHVE 111215Z AUTO 00000KT 10SM CLR 08/M03 A3027 RMK AO2
cycle: 12

Station Type Date Time Source
KHVE TAF UTC NOAA

Error!

Example: see airport list